Time;durP1;ratioP1;P1;durP2;ratioP2;P2;SDS_P1;SDS_P2;PMS_P1;PMS_P2;Temp;Humidity;BMP_temperature;BMP_pressure;BME280_temperature;BME280_humidity;BME280_pressure;Samples;Min_cycle;Max_cycle;Signal;HPM_P1;HPM_P2
2021/04/13 00:01:35;;;;;;;3.42;0.55;;;2.20;99.90;;;;;;5020547;28;20073;-80
2021/04/13 00:04:05;;;;;;;3.33;0.60;;;2.10;99.90;;;;;;5001287;28;20058;-80
2021/04/13 00:06:46;;;;;;;1.85;0.50;;;2.10;99.90;;;;;;5018204;28;20092;-80
2021/04/13 00:09:16;;;;;;;3.33;0.82;;;2.10;99.90;;;;;;5000462;28;20134;-80
2021/04/13 00:11:49;;;;;;;6.65;1.15;;;2.10;99.90;;;;;;5004637;28;20535;-80
2021/04/13 00:14:19;;;;;;;3.10;0.70;;;2.10;99.90;;;;;;5002938;28;20061;-81
2021/04/13 00:16:47;;;;;;;4.45;0.70;;;2.00;99.90;;;;;;4998456;28;20068;-80
2021/04/13 00:19:17;;;;;;;5.97;0.93;;;2.00;99.90;;;;;;5017723;28;20126;-81
2021/04/13 00:21:44;;;;;;;7.13;0.77;;;2.00;99.90;;;;;;5005286;28;20052;-81
2021/04/13 00:24:21;;;;;;;9.98;1.10;;;2.00;99.90;;;;;;5007683;28;20062;-81
2021/04/13 00:26:53;;;;;;;3.08;0.88;;;2.00;99.90;;;;;;5002264;28;20078;-81
2021/04/13 00:29:23;;;;;;;10.60;1.50;;;2.00;99.90;;;;;;5002273;28;20054;-81
2021/04/13 00:31:53;;;;;;;3.30;0.75;;;2.00;99.90;;;;;;5022202;28;20050;-80
2021/04/13 00:34:23;;;;;;;5.82;1.10;;;1.90;99.90;;;;;;5005440;28;20148;-80
2021/04/13 00:37:14;;;;;;;3.20;0.70;;;1.90;99.90;;;;;;5007651;28;20112;-80
2021/04/13 00:39:41;;;;;;;5.70;1.02;;;2.00;99.90;;;;;;5002528;28;20084;-81
2021/04/13 00:42:13;;;;;;;4.72;1.17;;;2.00;99.90;;;;;;5005942;28;20056;-80
2021/04/13 00:44:51;;;;;;;8.30;1.48;;;2.10;99.90;;;;;;5003112;28;20052;-80
2021/04/13 00:47:33;;;;;;;4.65;0.82;;;2.20;99.90;;;;;;5001689;28;20049;-80
2021/04/13 00:50:16;;;;;;;7.90;0.73;;;2.20;99.90;;;;;;5005474;28;20096;-81
2021/04/13 00:52:51;;;;;;;6.63;0.63;;;2.30;99.90;;;;;;5005384;28;20049;-80
2021/04/13 00:55:20;;;;;;;6.32;1.27;;;2.40;99.90;;;;;;5005051;28;20052;-81
2021/04/13 00:57:54;;;;;;;5.00;0.98;;;2.40;99.90;;;;;;5020850;28;20121;-80
2021/04/13 01:00:24;;;;;;;;;;;2.40;99.90;;;;;;4998782;28;20420;-81
2021/04/13 01:03:00;;;;;;;2.63;0.70;;;2.40;99.90;;;;;;5018869;28;20316;-81
2021/04/13 01:05:39;;;;;;;4.70;1.00;;;2.40;99.90;;;;;;5001584;28;20442;-80
2021/04/13 01:08:30;;;;;;;8.35;1.17;;;2.40;99.90;;;;;;5015737;28;20405;-80
2021/04/13 01:11:17;;;;;;;4.35;0.60;;;2.40;99.90;;;;;;5005415;28;20065;-81
2021/04/13 01:13:56;;;;;;;6.22;1.05;;;2.30;99.90;;;;;;5001560;28;20076;-80
2021/04/13 01:16:27;;;;;;;8.32;1.10;;;2.20;99.90;;;;;;5000701;28;20149;-80
2021/04/13 01:19:24;;;;;;;8.05;1.23;;;2.20;99.90;;;;;;5015100;28;20053;-80
2021/04/13 01:22:07;;;;;;;8.65;1.58;;;2.10;99.90;;;;;;4993091;28;20169;-81
2021/04/13 01:24:37;;;;;;;9.43;1.42;;;2.10;99.90;;;;;;5005552;28;20045;-80
2021/04/13 01:27:10;;;;;;;15.30;1.52;;;2.00;99.90;;;;;;5002849;28;20080;-80
2021/04/13 01:29:38;;;;;;;7.80;1.02;;;2.00;99.90;;;;;;5005354;28;20054;-80
2021/04/13 01:32:07;;;;;;;6.97;0.90;;;1.90;99.90;;;;;;5005020;28;20090;-80
2021/04/13 01:34:49;;;;;;;4.10;2.05;;;1.90;99.90;;;;;;5002962;28;20104;-80
2021/04/13 01:37:43;;;;;;;12.80;1.33;;;1.80;99.90;;;;;;5008466;28;20130;-82
2021/04/13 01:40:19;;;;;;;8.05;1.05;;;1.80;99.90;;;;;;5001035;28;20137;-82
2021/04/13 01:42:49;;;;;;;4.95;1.40;;;1.70;99.90;;;;;;5004279;28;20140;-80
2021/04/13 01:45:26;;;;;;;8.57;0.90;;;1.70;99.90;;;;;;4997824;28;20456;-80
2021/04/13 01:47:55;;;;;;;10.90;1.35;;;1.70;99.90;;;;;;5003319;28;20104;-81
2021/04/13 01:50:35;;;;;;;6.57;0.90;;;1.60;99.90;;;;;;5012923;28;20054;-81
2021/04/13 01:53:20;;;;;;;7.82;0.93;;;1.60;99.90;;;;;;4995285;28;20064;-81
2021/04/13 01:55:57;;;;;;;9.90;1.63;;;1.60;99.90;;;;;;4999634;28;20137;-81
2021/04/13 01:58:30;;;;;;;8.15;1.92;;;1.50;99.90;;;;;;5003175;28;20042;-81
2021/04/13 02:01:14;;;;;;;7.95;1.33;;;1.50;99.90;;;;;;5011340;28;20070;-81
2021/04/13 02:03:40;;;;;;;;;;;1.40;99.90;;;;;;5019436;28;20061;-81
2021/04/13 02:06:16;;;;;;;10.77;1.90;;;1.40;99.90;;;;;;5018005;28;19926;-81
2021/04/13 02:08:50;;;;;;;6.47;1.25;;;1.40;99.90;;;;;;5010567;28;20050;-81
2021/04/13 02:11:25;;;;;;;7.70;1.17;;;1.30;99.90;;;;;;5014345;28;20064;-81
2021/04/13 02:14:09;;;;;;;11.43;1.88;;;1.30;99.90;;;;;;4998995;28;20590;-81
2021/04/13 02:16:50;;;;;;;7.45;1.17;;;1.20;99.90;;;;;;5005462;28;20136;-81
2021/04/13 02:19:18;;;;;;;10.07;1.52;;;1.20;99.90;;;;;;5019046;28;20050;-81
2021/04/13 02:21:50;;;;;;;9.05;2.35;;;1.20;99.90;;;;;;5021255;28;20180;-81
2021/04/13 02:24:44;;;;;;;6.97;1.40;;;1.10;99.90;;;;;;5018423;28;20050;-81
2021/04/13 02:27:21;;;;;;;6.00;1.37;;;1.10;99.90;;;;;;5002068;28;20046;-81
2021/04/13 02:29:51;;;;;;;9.10;1.30;;;1.10;99.90;;;;;;5011284;28;20050;-80
2021/04/13 02:32:30;;;;;;;6.82;1.00;;;1.00;99.90;;;;;;5003383;28;20666;-81
2021/04/13 02:35:03;;;;;;;3.78;1.33;;;1.00;99.90;;;;;;5022748;28;20466;-80
2021/04/13 02:37:40;;;;;;;6.43;1.50;;;0.90;99.90;;;;;;5007640;28;20072;-81
2021/04/13 02:40:12;;;;;;;8.80;1.27;;;0.90;99.90;;;;;;5023606;28;20092;-81
2021/04/13 02:42:47;;;;;;;10.13;1.27;;;0.90;99.90;;;;;;5007451;28;20076;-81
2021/04/13 02:45:27;;;;;;;9.13;1.33;;;0.80;99.90;;;;;;5020501;28;20145;-82
2021/04/13 02:48:00;;;;;;;8.00;1.30;;;0.80;99.90;;;;;;5022560;28;20114;-81
2021/04/13 02:50:27;;;;;;;6.50;1.48;;;0.80;99.90;;;;;;5005104;28;20124;-81
2021/04/13 02:52:54;;;;;;;9.95;1.30;;;0.80;99.90;;;;;;5005947;28;20058;-81
2021/04/13 02:55:28;;;;;;;15.05;1.92;;;0.70;99.90;;;;;;5007200;28;20076;-81
2021/04/13 02:58:01;;;;;;;4.85;1.35;;;0.70;99.90;;;;;;5021270;28;20061;-81
2021/04/13 03:00:48;;;;;;;10.60;1.40;;;0.70;99.90;;;;;;5006908;28;20411;-81
2021/04/13 03:03:29;;;;;;;9.88;1.40;;;0.70;99.90;;;;;;5006785;28;20081;-80
2021/04/13 03:05:57;;;;;;;5.63;1.20;;;0.70;99.90;;;;;;5007408;28;20136;-80
2021/04/13 03:08:25;;;;;;;11.35;2.60;;;0.70;99.90;;;;;;5004844;28;20082;-80
2021/04/13 03:10:55;;;;;;;10.27;1.83;;;0.70;99.90;;;;;;5024276;28;20042;-79
2021/04/13 03:13:33;;;;;;;7.53;1.23;;;0.70;99.90;;;;;;5004297;28;20141;-80
2021/04/13 03:16:00;;;;;;;9.77;1.10;;;0.60;99.90;;;;;;5021366;28;20487;-80
2021/04/13 03:18:48;;;;;;;7.28;2.10;;;0.60;99.90;;;;;;5011854;28;20095;-80
2021/04/13 03:21:29;;;;;;;4.50;0.98;;;0.70;99.90;;;;;;5007692;28;20053;-80
2021/04/13 03:23:59;;;;;;;5.22;1.38;;;0.60;99.90;;;;;;5003182;28;20108;-81
2021/04/13 03:26:36;;;;;;;7.72;0.95;;;0.60;99.90;;;;;;5017976;28;20149;-81
2021/04/13 03:29:11;;;;;;;7.07;1.08;;;0.60;99.90;;;;;;5002708;28;20082;-81
2021/04/13 03:31:38;;;;;;;8.73;1.30;;;0.60;99.90;;;;;;5007669;28;20122;-82
2021/04/13 03:34:07;;;;;;;10.75;1.92;;;0.60;99.90;;;;;;5014126;28;20116;-81
2021/04/13 03:36:34;;;;;;;13.45;1.23;;;0.60;99.90;;;;;;5021690;28;20073;-80
2021/04/13 03:39:07;;;;;;;9.93;1.38;;;0.60;99.90;;;;;;5020984;28;20050;-81
2021/04/13 03:41:39;;;;;;;9.77;1.50;;;0.60;99.90;;;;;;5007022;28;20046;-81
2021/04/13 03:44:06;;;;;;;15.17;1.57;;;0.60;99.90;;;;;;5004657;28;20065;-81
2021/04/13 03:46:36;;;;;;;7.28;1.45;;;0.50;99.90;;;;;;5022645;28;20292;-81
2021/04/13 03:49:06;;;;;;;14.73;1.33;;;0.50;99.90;;;;;;5021708;28;20126;-81
2021/04/13 03:51:40;;;;;;;12.57;1.38;;;0.50;99.90;;;;;;5020862;28;20134;-81
2021/04/13 03:54:29;;;;;;;10.00;1.35;;;0.50;99.90;;;;;;5003496;28;20164;-81
2021/04/13 03:56:56;;;;;;;6.15;1.10;;;0.50;99.90;;;;;;5020591;28;20060;-81
2021/04/13 03:59:29;;;;;;;4.97;1.10;;;0.50;99.90;;;;;;5014484;28;20057;-82
2021/04/13 04:01:56;;;;;;;11.85;1.20;;;0.50;99.90;;;;;;5022359;28;20077;-81
2021/04/13 04:04:33;;;;;;;7.47;1.23;;;0.50;99.90;;;;;;5012226;28;20073;-81
2021/04/13 04:07:35;;;;;;;9.07;1.00;;;0.50;99.90;;;;;;5002323;28;20069;-81
2021/04/13 04:10:21;;;;;;;11.73;1.60;;;0.50;99.90;;;;;;5000225;28;20052;-80
2021/04/13 04:13:07;;;;;;;6.82;0.90;;;0.40;99.90;;;;;;5001634;28;20136;-81
2021/04/13 04:16:07;;;;;;;6.90;1.02;;;0.40;99.90;;;;;;5003146;28;20060;-80
2021/04/13 04:18:45;;;;;;;9.10;2.72;;;0.40;99.90;;;;;;4998488;28;20048;-80
2021/04/13 04:21:36;;;;;;;18.15;3.10;;;0.30;99.90;;;;;;5002399;28;20445;-80
2021/04/13 04:24:29;;;;;;;10.57;2.75;;;0.30;99.90;;;;;;5002692;28;20052;-80
2021/04/13 04:26:57;;;;;;;6.53;1.88;;;0.30;99.90;;;;;;5021057;28;20042;-80
2021/04/13 04:29:29;;;;;;;6.30;1.20;;;0.20;99.90;;;;;;5017763;28;20056;-80
2021/04/13 04:32:09;;;;;;;14.35;1.65;;;0.30;99.90;;;;;;5017997;28;20056;-80
2021/04/13 04:34:39;;;;;;;7.20;1.33;;;0.20;99.90;;;;;;5020203;28;20049;-80
2021/04/13 04:37:24;;;;;;;9.77;1.55;;;0.20;99.90;;;;;;5020463;28;20061;-80
2021/04/13 04:40:32;;;;;;;20.50;3.25;;;0.30;99.90;;;;;;5017749;28;20112;-80
2021/04/13 04:43:03;;;;;;;8.35;2.35;;;0.20;99.90;;;;;;5002852;28;20119;-80
2021/04/13 04:45:43;;;;;;;7.82;2.05;;;0.30;99.90;;;;;;5021856;28;20107;-80
2021/04/13 04:48:34;;;;;;;5.88;1.40;;;0.20;99.90;;;;;;5017191;28;20073;-81
2021/04/13 04:51:26;;;;;;;14.07;1.70;;;0.30;99.90;;;;;;5020316;28;20482;-81
2021/04/13 04:53:52;;;;;;;7.43;1.77;;;0.30;99.90;;;;;;4997408;28;20054;-80
2021/04/13 04:56:18;;;;;;;14.73;1.73;;;0.30;99.90;;;;;;5015184;28;20133;-80
2021/04/13 04:58:45;;;;;;;17.38;3.35;;;0.30;99.90;;;;;;4999248;28;20470;-80
2021/04/13 05:01:11;;;;;;;13.07;2.40;;;0.30;99.90;;;;;;4997461;28;20160;-80
2021/04/13 05:03:39;;;;;;;15.48;2.60;;;0.30;99.90;;;;;;5015122;28;20153;-81
2021/04/13 05:06:05;;;;;;;12.13;1.80;;;0.30;99.90;;;;;;5013505;28;20096;-80
2021/04/13 05:08:32;;;;;;;13.38;2.35;;;0.30;99.90;;;;;;4997715;28;20081;-80
2021/04/13 05:10:58;;;;;;;11.90;2.30;;;0.30;99.90;;;;;;5000370;28;20491;-80
2021/04/13 05:13:24;;;;;;;11.85;2.83;;;0.30;99.90;;;;;;5017816;28;20422;-80
2021/04/13 05:15:52;;;;;;;28.42;2.22;;;0.30;99.90;;;;;;4999948;28;20074;-80
2021/04/13 05:18:18;;;;;;;13.68;1.85;;;0.30;99.90;;;;;;5013659;28;20042;-80
2021/04/13 05:20:46;;;;;;;15.38;2.53;;;0.30;99.90;;;;;;4999328;28;20046;-80
2021/04/13 05:23:12;;;;;;;9.75;2.38;;;0.40;99.90;;;;;;5000370;28;20073;-81
2021/04/13 05:25:39;;;;;;;14.80;2.08;;;0.40;99.90;;;;;;4998314;28;20046;-80
2021/04/13 05:28:06;;;;;;;13.85;2.97;;;0.40;99.90;;;;;;4999077;28;20076;-81
2021/04/13 05:30:35;;;;;;;11.30;1.70;;;0.50;99.90;;;;;;4999557;28;20076;-81
2021/04/13 05:33:02;;;;;;;13.25;2.30;;;0.60;99.90;;;;;;5008852;28;20050;-81
2021/04/13 05:35:28;;;;;;;13.07;2.08;;;0.60;99.90;;;;;;5004836;28;20045;-81
2021/04/13 05:38:01;;;;;;;11.63;1.73;;;0.70;99.90;;;;;;5016165;28;20124;-81
2021/04/13 05:40:33;;;;;;;18.55;2.38;;;0.80;99.90;;;;;;5002205;28;20448;-81
2021/04/13 05:43:00;;;;;;;15.07;1.63;;;0.80;99.90;;;;;;5003089;28;20119;-81
2021/04/13 05:45:30;;;;;;;10.90;3.33;;;0.90;99.90;;;;;;5019222;28;20056;-81
2021/04/13 05:47:58;;;;;;;18.27;2.85;;;1.00;99.90;;;;;;5004844;28;20038;-82
2021/04/13 05:50:32;;;;;;;29.40;2.72;;;1.10;99.90;;;;;;5014194;28;20490;-82
2021/04/13 05:52:58;;;;;;;18.08;2.78;;;1.20;99.90;;;;;;5004558;28;20106;-82
2021/04/13 05:55:26;;;;;;;8.27;1.63;;;1.30;99.90;;;;;;5001597;28;20194;-82
2021/04/13 05:57:55;;;;;;;13.20;2.60;;;1.50;99.90;;;;;;5000285;28;20113;-82
2021/04/13 06:00:24;;;;;;;17.90;2.65;;;1.60;99.90;;;;;;5013191;28;20705;-82
2021/04/13 06:02:52;;;;;;;9.40;1.65;;;1.80;99.90;;;;;;5016740;28;20569;-83
2021/04/13 06:05:22;;;;;;;11.32;1.30;;;1.90;99.90;;;;;;5018304;28;20168;-82
2021/04/13 06:07:49;;;;;;;13.60;1.88;;;2.30;99.90;;;;;;5001536;28;20742;-82
2021/04/13 06:10:16;;;;;;;8.90;1.85;;;2.60;99.90;;;;;;5020344;28;24384;-82
2021/04/13 06:12:52;;;;;;;11.30;1.70;;;3.00;99.90;;;;;;5020868;28;20141;-83
2021/04/13 06:15:20;;;;;;;12.40;1.95;;;3.40;99.90;;;;;;5007263;28;20598;-83
2021/04/13 06:17:47;;;;;;;10.48;1.08;;;3.80;99.90;;;;;;5023153;28;20050;-83
2021/04/13 06:20:18;;;;;;;11.15;2.08;;;4.10;99.90;;;;;;5004391;28;20476;-83
2021/04/13 06:22:46;;;;;;;11.23;1.15;;;4.50;99.90;;;;;;5008231;28;20052;-83
2021/04/13 06:25:21;;;;;;;10.25;1.45;;;4.90;99.90;;;;;;5006340;28;20115;-83
2021/04/13 06:27:50;;;;;;;5.75;0.77;;;5.40;99.90;;;;;;5008112;28;20555;-82
2021/04/13 06:30:19;;;;;;;5.95;1.88;;;5.80;99.90;;;;;;5006780;28;20057;-83
2021/04/13 06:32:45;;;;;;;13.15;2.22;;;6.20;99.90;;;;;;5008985;28;20060;-82
2021/04/13 06:35:12;;;;;;;11.43;1.83;;;6.50;99.90;;;;;;5024203;28;20050;-83
2021/04/13 06:37:42;;;;;;;8.05;1.08;;;6.80;99.90;;;;;;5019318;28;20053;-83
2021/04/13 06:40:14;;;;;;;6.88;0.90;;;7.20;99.90;;;;;;5008312;28;20073;-82
2021/04/13 06:43:10;;;;;;;10.35;1.08;;;7.50;99.90;;;;;;5006555;28;20053;-83
2021/04/13 06:45:48;;;;;;;15.63;0.98;;;7.80;99.90;;;;;;5004099;28;20149;-83
2021/04/13 06:48:53;;;;;;;9.10;1.00;;;8.10;99.90;;;;;;5008367;28;20057;-83
2021/04/13 06:51:38;;;;;;;10.88;1.52;;;8.30;99.90;;;;;;5022608;28;20113;-82
2021/04/13 06:54:21;;;;;;;9.25;0.95;;;8.50;99.90;;;;;;5005720;28;20091;-82
2021/04/13 06:57:26;;;;;;;4.65;0.80;;;8.60;99.90;;;;;;5009597;28;20054;-83
2021/04/13 07:00:13;;;;;;;12.13;3.85;;;8.50;99.90;;;;;;5003728;28;20077;-82
2021/04/13 07:03:10;;;;;;;7.30;1.60;;;8.40;99.90;;;;;;5003177;28;20057;-82
2021/04/13 07:05:42;;;;;;;10.68;2.50;;;8.30;99.90;;;;;;5025003;28;20065;-82
2021/04/13 07:08:32;;;;;;;4.40;0.82;;;8.10;99.90;;;;;;5021634;28;20080;-83
2021/04/13 07:11:22;;;;;;;13.60;2.03;;;8.10;99.90;;;;;;5005809;28;20060;-82
2021/04/13 07:14:12;;;;;;;8.68;1.38;;;7.90;99.90;;;;;;5001372;28;20550;-82
2021/04/13 07:16:52;;;;;;;12.77;2.42;;;7.80;99.90;;;;;;5007734;28;20066;-82
2021/04/13 07:19:51;;;;;;;9.98;3.22;;;7.80;99.90;;;;;;5008629;28;20148;-83
2021/04/13 07:22:29;;;;;;;7.05;0.82;;;7.80;99.90;;;;;;4986734;28;20054;-82
2021/04/13 07:25:01;;;;;;;9.80;1.08;;;7.80;99.90;;;;;;5006193;28;20053;-83
2021/04/13 07:27:44;;;;;;;8.85;1.00;;;7.90;99.90;;;;;;5007338;28;20045;-82
2021/04/13 07:30:19;;;;;;;8.75;2.20;;;7.90;99.90;;;;;;5021764;28;20053;-82
2021/04/13 07:32:46;;;;;;;10.15;2.58;;;8.00;99.90;;;;;;5002165;28;20417;-82
2021/04/13 07:35:16;;;;;;;8.75;2.53;;;7.90;99.90;;;;;;5007106;28;20057;-82
2021/04/13 07:37:44;;;;;;;6.07;1.85;;;8.00;99.90;;;;;;5020996;28;20141;-82
2021/04/13 07:40:15;;;;;;;8.63;2.03;;;8.10;99.90;;;;;;5020747;28;20062;-83
2021/04/13 07:42:50;;;;;;;3.55;0.63;;;8.20;99.90;;;;;;5022397;28;20069;-82
2021/04/13 07:45:37;;;;;;;11.32;0.98;;;8.20;99.90;;;;;;5004719;28;20050;-82
2021/04/13 07:48:33;;;;;;;3.97;1.17;;;8.30;99.90;;;;;;5022804;28;20056;-83
2021/04/13 07:51:02;;;;;;;4.82;0.98;;;8.40;99.90;;;;;;4979598;28;20065;-83
2021/04/13 07:53:55;;;;;;;10.88;1.35;;;8.40;99.90;;;;;;5005421;28;20080;-82
2021/04/13 07:56:24;;;;;;;3.85;1.38;;;8.60;99.90;;;;;;4997080;28;20046;-83
2021/04/13 07:59:08;;;;;;;7.38;0.70;;;8.70;99.90;;;;;;5006263;28;20108;-83
2021/04/13 08:01:34;;;;;;;8.00;1.60;;;8.80;99.90;;;;;;5005869;28;20140;-83
2021/04/13 08:04:01;;;;;;;9.27;1.38;;;8.80;99.90;;;;;;5007315;28;20503;-84
2021/04/13 08:06:28;;;;;;;8.52;1.65;;;8.90;99.90;;;;;;5010873;28;20056;-83
2021/04/13 08:09:24;;;;;;;5.82;0.73;;;8.90;99.90;;;;;;5021557;28;20054;-83
2021/04/13 08:12:18;;;;;;;1.83;0.60;;;9.00;99.90;;;;;;5003975;28;20045;-82
2021/04/13 08:14:55;;;;;;;3.90;1.23;;;9.10;99.90;;;;;;4998667;28;20221;-82
2021/04/13 08:17:25;;;;;;;4.40;0.47;;;9.10;99.90;;;;;;5004439;28;20121;-82
2021/04/13 08:19:59;;;;;;;7.13;0.80;;;9.10;99.90;;;;;;5004119;28;20103;-82
2021/04/13 08:22:25;;;;;;;;;;;9.30;99.90;;;;;;5020154;28;20096;-83
2021/04/13 08:24:54;;;;;;;8.93;0.70;;;9.40;99.90;;;;;;5005741;28;19972;-82
2021/04/13 08:27:39;;;;;;;4.65;0.63;;;9.50;99.90;;;;;;5004624;28;20504;-82
2021/04/13 08:30:34;;;;;;;4.20;0.50;;;9.70;99.90;;;;;;5018754;28;20046;-82
2021/04/13 08:33:05;;;;;;;3.15;0.60;;;9.80;99.90;;;;;;5017591;28;20118;-83
2021/04/13 08:35:56;;;;;;;5.00;0.60;;;9.90;96.90;;;;;;5004267;28;20475;-82
2021/04/13 08:39:08;;;;;;;3.03;0.77;;;9.80;97.10;;;;;;5002232;28;20060;-83
2021/04/13 08:41:53;;;;;;;9.05;1.38;;;9.80;98.60;;;;;;4987048;28;20436;-82
2021/04/13 08:44:35;;;;;;;4.88;0.70;;;9.90;97.90;;;;;;5016762;28;20149;-82
2021/04/13 08:47:15;;;;;;;4.65;1.00;;;10.00;97.30;;;;;;5004927;28;20053;-83
2021/04/13 08:49:57;;;;;;;11.10;2.08;;;10.10;98.20;;;;;;5020824;28;20064;-83
2021/04/13 08:52:51;;;;;;;6.05;1.15;;;10.30;97.70;;;;;;5003521;28;20554;-83
2021/04/13 08:55:20;;;;;;;10.83;1.33;;;10.40;97.40;;;;;;5020001;28;20132;-83
2021/04/13 08:58:13;;;;;;;4.03;0.50;;;10.40;95.80;;;;;;5011728;28;20060;-84
2021/04/13 09:00:50;;;;;;;6.20;0.80;;;10.50;95.10;;;;;;5004532;28;20052;-83
2021/04/13 09:03:19;;;;;;;4.53;1.02;;;10.50;94.60;;;;;;5020873;28;20140;-83
2021/04/13 09:05:50;;;;;;;7.55;1.63;;;10.60;96.00;;;;;;5005001;28;20564;-84
2021/04/13 09:08:42;;;;;;;7.78;0.70;;;10.80;93.00;;;;;;5005390;28;20517;-83
2021/04/13 09:11:26;;;;;;;2.70;0.47;;;10.90;92.20;;;;;;5005214;28;20104;-83
2021/04/13 09:14:17;;;;;;;5.03;0.80;;;11.00;91.90;;;;;;5005242;28;20100;-83
2021/04/13 09:16:55;;;;;;;5.60;0.57;;;11.00;91.90;;;;;;5005258;28;20556;-82
2021/04/13 09:19:38;;;;;;;3.80;0.65;;;11.20;90.20;;;;;;5003599;28;20140;-81
2021/04/13 09:22:46;;;;;;;3.17;0.30;;;11.20;85.40;;;;;;5000593;28;20046;-82
2021/04/13 09:25:34;;;;;;;4.43;0.57;;;11.20;85.60;;;;;;5002665;28;20551;-82
2021/04/13 09:28:15;;;;;;;5.38;0.52;;;11.10;82.00;;;;;;5002898;28;20133;-83
2021/04/13 09:30:44;;;;;;;3.38;0.70;;;11.20;84.30;;;;;;5003489;28;20113;-83
2021/04/13 09:33:18;;;;;;;1.75;0.63;;;11.30;82.80;;;;;;5017315;28;20287;-83
2021/04/13 09:35:45;;;;;;;2.38;0.52;;;11.50;85.40;;;;;;5017244;28;20137;-83
2021/04/13 09:38:59;;;;;;;2.60;0.60;;;11.70;79.80;;;;;;5020352;28;20660;-83
2021/04/13 09:42:04;;;;;;;3.03;0.52;;;12.00;75.60;;;;;;4962127;28;20628;-83
2021/04/13 09:44:52;;;;;;;4.65;0.70;;;11.80;74.90;;;;;;5024752;28;20129;-83
2021/04/13 09:47:24;;;;;;;1.95;0.50;;;11.70;75.00;;;;;;5006692;28;20070;-83
2021/04/13 09:50:28;;;;;;;3.58;0.60;;;11.70;76.10;;;;;;5007597;28;20053;-83
2021/04/13 09:53:10;;;;;;;1.08;0.30;;;11.90;73.80;;;;;;5000786;28;20142;-83
2021/04/13 09:55:45;;;;;;;1.83;0.60;;;11.90;68.00;;;;;;5023578;28;20106;-83
2021/04/13 09:58:38;;;;;;;1.60;0.50;;;11.90;69.40;;;;;;5020918;28;20054;-83
2021/04/13 10:01:22;;;;;;;7.57;1.40;;;12.30;70.50;;;;;;5023198;28;20066;-83
2021/04/13 10:04:28;;;;;;;2.95;0.45;;;12.70;68.90;;;;;;5024088;28;20053;-83
2021/04/13 10:07:17;;;;;;;2.67;1.60;;;13.00;65.40;;;;;;5009426;28;20053;-83
2021/04/13 10:09:45;;;;;;;1.77;0.80;;;12.90;64.50;;;;;;5018956;28;20117;-83
2021/04/13 10:12:43;;;;;;;4.45;0.70;;;12.50;64.90;;;;;;5021912;28;20389;-83
2021/04/13 10:15:32;;;;;;;2.17;0.90;;;12.00;66.80;;;;;;5022084;28;20417;-82
2021/04/13 10:18:47;;;;;;;2.45;0.70;;;11.50;69.30;;;;;;5019286;28;20425;-82
2021/04/13 10:21:39;;;;;;;3.90;1.33;;;10.90;76.40;;;;;;5021345;28;20058;-83
2021/04/13 10:24:47;;;;;;;4.10;0.80;;;10.50;81.80;;;;;;5024637;28;20042;-83
2021/04/13 10:27:55;;;;;;;8.68;2.00;;;10.10;92.30;;;;;;5004342;28;20149;-82
2021/04/13 10:30:35;;;;;;;4.35;1.40;;;9.80;95.70;;;;;;5004508;28;20113;-82
2021/04/13 10:33:20;;;;;;;2.70;0.60;;;9.50;97.50;;;;;;5022891;28;20053;-82
2021/04/13 10:36:05;;;;;;;4.50;0.98;;;9.60;99.90;;;;;;5020800;28;20057;-83
2021/04/13 10:39:03;;;;;;;2.63;0.82;;;9.90;97.80;;;;;;5020557;28;20056;-82
2021/04/13 10:41:56;;;;;;;4.80;2.00;;;10.10;96.90;;;;;;5016804;28;20492;-83
2021/04/13 10:44:35;;;;;;;3.65;1.30;;;10.10;93.30;;;;;;5021652;28;20049;-82
2021/04/13 10:47:14;;;;;;;3.22;0.60;;;10.10;94.20;;;;;;5008745;28;20454;-82
2021/04/13 10:49:58;;;;;;;1.48;0.50;;;10.20;93.20;;;;;;4999409;28;20068;-81
2021/04/13 10:52:35;;;;;;;;;;;10.50;91.50;;;;;;5003222;28;20053;-81
2021/04/13 10:55:01;;;;;;;10.45;1.23;;;10.60;89.60;;;;;;5006350;28;19925;-82
2021/04/13 10:57:46;;;;;;;5.07;0.52;;;10.60;90.10;;;;;;5023709;28;20107;-82
2021/04/13 11:00:24;;;;;;;2.88;0.30;;;10.70;90.70;;;;;;5023607;28;20386;-82
2021/04/13 11:03:13;;;;;;;1.73;0.55;;;11.00;90.90;;;;;;5009758;28;20127;-82
2021/04/13 11:06:17;;;;;;;5.55;0.88;;;11.50;92.50;;;;;;5005539;28;20058;-82
2021/04/13 11:08:58;;;;;;;6.03;2.03;;;11.90;83.30;;;;;;5020277;28;20050;-82
2021/04/13 11:11:49;;;;;;;2.40;0.80;;;12.10;85.50;;;;;;5007419;28;20092;-82
2021/04/13 11:15:12;;;;;;;4.97;0.60;;;12.10;78.80;;;;;;5025265;28;20109;-81
2021/04/13 11:18:16;;;;;;;1.75;0.70;;;12.20;81.60;;;;;;4956598;28;20055;-81
2021/04/13 11:21:12;;;;;;;2.20;0.40;;;12.30;74.60;;;;;;4942969;28;20035;-81
2021/04/13 11:24:03;;;;;;;1.60;0.35;;;12.20;75.20;;;;;;5020248;28;20037;-81
2021/04/13 11:26:57;;;;;;;2.40;0.40;;;12.20;74.80;;;;;;5037159;28;20048;-81
2021/04/13 11:29:26;;;;;;;4.95;1.15;;;12.30;75.60;;;;;;5018440;28;20050;-81
2021/04/13 11:32:29;;;;;;;3.30;0.77;;;12.50;72.50;;;;;;5034423;28;20042;-82
2021/04/13 11:35:02;;;;;;;12.60;3.20;;;12.70;70.10;;;;;;5036399;28;20049;-82
2021/04/13 11:37:50;;;;;;;5.38;1.95;;;13.00;68.30;;;;;;5021928;28;20050;-82
2021/04/13 11:40:46;;;;;;;10.60;2.20;;;13.00;65.80;;;;;;5008213;28;20107;-82
2021/04/13 11:43:23;;;;;;;5.10;1.70;;;12.60;64.90;;;;;;4996299;28;20144;-82
2021/04/13 11:46:07;;;;;;;9.88;2.72;;;12.30;67.70;;;;;;5008573;28;20541;-82
2021/04/13 11:48:45;;;;;;;9.18;2.70;;;12.30;70.30;;;;;;5008072;28;20070;-82
2021/04/13 11:51:37;;;;;;;9.45;2.63;;;12.40;66.20;;;;;;5001094;28;20125;-82
2021/04/13 11:54:52;;;;;;;5.15;1.65;;;12.30;68.00;;;;;;5002756;28;20129;-81
2021/04/13 11:57:33;;;;;;;4.32;0.90;;;12.00;68.90;;;;;;5022684;28;20444;-81
2021/04/13 12:00:11;;;;;;;6.63;1.13;;;11.90;70.20;;;;;;5021630;28;20046;-81
2021/04/13 12:02:43;;;;;;;6.32;2.08;;;12.10;72.90;;;;;;5022093;28;20109;-82
2021/04/13 12:05:31;;;;;;;11.10;2.55;;;12.70;71.10;;;;;;5023116;28;20072;-82
2021/04/13 12:07:59;;;;;;;6.32;1.48;;;13.30;68.20;;;;;;5021397;28;20050;-82
2021/04/13 12:10:32;;;;;;;3.33;1.10;;;13.50;69.10;;;;;;5019466;28;20054;-82
2021/04/13 12:13:05;;;;;;;8.90;2.35;;;13.80;68.60;;;;;;5020929;28;20452;-82
2021/04/13 12:15:34;;;;;;;;;;;14.30;69.00;;;;;;5003331;28;20109;-82
2021/04/13 12:18:35;;;;;;;9.70;3.13;;;14.80;68.60;;;;;;5003381;28;20360;-82
2021/04/13 12:21:23;;;;;;;6.20;1.65;;;15.50;64.20;;;;;;5020204;28;20053;-82
2021/04/13 12:24:19;;;;;;;8.05;3.17;;;16.00;60.90;;;;;;4999870;28;20502;-82
2021/04/13 12:26:49;;;;;;;9.32;1.73;;;16.10;59.80;;;;;;5001563;28;20053;-82
2021/04/13 12:29:27;;;;;;;3.20;0.65;;;16.40;61.00;;;;;;5004397;28;20501;-82
2021/04/13 12:32:12;;;;;;;3.08;1.02;;;17.00;54.70;;;;;;5003656;28;20513;-82
2021/04/13 12:35:00;;;;;;;6.00;2.45;;;17.80;53.50;;;;;;5002164;28;20176;-82
2021/04/13 12:37:40;;;;;;;6.28;2.28;;;18.60;50.00;;;;;;5010503;28;20398;-83
2021/04/13 12:40:15;;;;;;;5.78;1.20;;;19.40;48.50;;;;;;5019232;28;20104;-82
2021/04/13 12:43:01;;;;;;;6.88;2.17;;;20.20;45.80;;;;;;5019281;28;20049;-82
2021/04/13 12:45:30;;;;;;;8.38;3.05;;;20.90;46.40;;;;;;5012307;28;20113;-82
2021/04/13 12:48:08;;;;;;;4.82;1.38;;;21.60;43.20;;;;;;4998837;28;20112;-83
2021/04/13 12:50:54;;;;;;;5.78;1.50;;;22.00;42.90;;;;;;5023063;28;20042;-83
2021/04/13 12:53:24;;;;;;;6.65;1.75;;;22.40;41.10;;;;;;4996958;28;20641;-83
2021/04/13 12:56:07;;;;;;;3.30;0.63;;;22.70;40.80;;;;;;5019337;28;20489;-82
2021/04/13 12:58:37;;;;;;;6.68;2.72;;;22.70;41.00;;;;;;5017189;28;20564;-82
2021/04/13 13:01:05;;;;;;;7.68;3.40;;;22.80;41.30;;;;;;5022603;28;20050;-82
2021/04/13 13:03:35;;;;;;;6.88;2.42;;;23.20;39.70;;;;;;5019552;28;20058;-83
2021/04/13 13:06:13;;;;;;;8.45;3.00;;;23.70;38.70;;;;;;5019796;28;20488;-83
2021/04/13 13:08:40;;;;;;;7.75;3.85;;;23.50;37.20;;;;;;5017876;28;20049;-83
2021/04/13 13:11:16;;;;;;;7.68;3.50;;;23.60;37.80;;;;;;5005498;28;20078;-83
2021/04/13 13:13:49;;;;;;;2.42;1.35;;;23.80;36.40;;;;;;5016961;28;20056;-82
2021/04/13 13:16:36;;;;;;;5.35;1.23;;;23.80;35.20;;;;;;5004987;28;20070;-83
2021/04/13 13:19:02;;;;;;;4.13;1.10;;;23.70;37.00;;;;;;5001635;28;20088;-83
2021/04/13 13:21:46;;;;;;;3.92;1.20;;;24.00;36.20;;;;;;5005458;28;20077;-83
2021/04/13 13:24:26;;;;;;;4.00;1.05;;;24.30;35.80;;;;;;5005762;28;20042;-83
2021/04/13 13:26:54;;;;;;;2.70;1.30;;;24.60;34.40;;;;;;5003757;28;20049;-83
2021/04/13 13:29:21;;;;;;;5.60;1.67;;;24.60;33.30;;;;;;5003267;28;20137;-83
2021/04/13 13:31:49;;;;;;;3.85;0.95;;;24.60;34.00;;;;;;5022103;28;20056;-82
2021/04/13 13:34:19;;;;;;;0.73;0.50;;;24.70;34.30;;;;;;5005072;28;20102;-82
2021/04/13 13:36:47;;;;;;;1.92;0.65;;;24.70;32.30;;;;;;5002672;28;20050;-82
2021/04/13 13:39:21;;;;;;;4.07;1.00;;;23.90;34.10;;;;;;5020794;28;20052;-82
2021/04/13 13:41:52;;;;;;;1.42;0.73;;;23.10;35.50;;;;;;5006041;28;20465;-83
2021/04/13 13:44:40;;;;;;;3.03;0.50;;;22.90;35.50;;;;;;5017953;28;20053;-83
2021/04/13 13:47:30;;;;;;;3.38;0.52;;;22.80;34.90;;;;;;5019526;28;20048;-82
2021/04/13 13:50:34;;;;;;;2.38;0.63;;;23.10;35.30;;;;;;5020625;28;20076;-83
2021/04/13 13:53:01;;;;;;;1.98;0.30;;;23.80;35.00;;;;;;4999194;28;20058;-83